za 14/02/15 - Schippergrevelingen cross - Bruinisse

uitslag icon Uitslag | fotoalbum icon Foto's

Uitslag

     Koolesport ZK-cross 2014
     Reactie's ovv STARTNUMMER binnen een week naar: aeromad@zeelandnet.nl
    Pallandcross, Brouwersdam Hse  8000m
    naam                   geb stn club           tyd
001 Kok          Martijn de 82 0023 Dynamica     0:26:36 609985  ZK 1
002 Staal        Tommy      94 0068 AV'56        0:26:44 477867  ZK 2
003 Broeke van d Tim           0053 Dynamica     0:27:33 520983  ZK 3
004 SintNicolaas Ricardo    86 0007 Flakkee      0:28:05 806140  
005 Schrier      David      85 0001 Dynamica     0:28:16 734229CC
006 Wolfert      Eric       90 0252 Flakkee      0:28:30 705676  
007 Balkenende   Luuk       95 0014 AV'56        0:29:15 507299CC
008 Bloem        Vincent    94 0004 Pallas'93    0:30:28 796969CC
009 Eijken       Mark van   80 0060 Flakkee      0:33:24         
010 Simonse      Elbert        0050 Aagtekerke   0:41:52         
   Reactie's ovv STARTNUMMER binnen een week naar: aeromad@zeelandnet.nl
 
    Pallandcross, Brouwersdam H35  8000m
    naam                   geb stn club           tyd
001 Harthoorn    Maarten    78 0201 Kapelle      0:28:57 CC      
002 Hamer        Michael de 76 0243 Scheldesport 0:29:52 831470  ZK 1
003 Melissant    Andre      72 0371 Flakkee      0:30:20 417133  ZK 2
004 Smit         Chris de   79 0226 RKHAV        0:30:38 654667  ZK 3
005 Karelse      Johan      73 0217 AV'56        0:31:22 846199CC
006 Buijck       Michel     75 0277 Dynamica     0:31:32 703132  
007 Zeeuw        Alwin de   70 0241 Scheldesport 0:33:43 447287  
008 Kapteijn     Remco      72 0400 AV'56        0:34:12 489266  
009 Paulusse     Nick       70 0215 Dynamica     0:36:09 750577CC
010 Kempe        M          75 0074 Delta Sport  0:36:17         
011 Olree        Erik       80 0072 Bruinisse    0:36:21         
012 Goedegebuur  Leon       77 0055 Flakkee      0:38:48         
013 Vroegindewey Leen       71 0081 Flakkee      0:42:56         
014 Dam          Jacco van  71 0292 Flakkee      0:44:47 653605  
   Reactie's ovv STARTNUMMER binnen een week naar: aeromad@zeelandnet.nl
 
    Pallandcross, Brouwersdam H45  8000m
    naam                   geb stn club           tyd
001 Hopmans      Jack       67 0070 Spado        0:29:07 5260183 ZK 1
002 Verhage      Arjo       69 0208 Dynamica     0:29:26 477579CCZK 2
003 Cappon       Erik       66 0221 Wielingen    0:29:41 468757  ZK 3
004 Balkenende   Peter      66 0235 AV'56        0:30:45 651798CC
005 Slits        Peter      67 0220 Wielingen    0:31:08 690612  
006 Vos          Wilko de   63 0234 AV'56        0:31:10 267864  
007 Douw         Wim        63 0057 Diomedon     0:31:56 556701  
008 Mourik       Piet van   63 0230 Delta Sport  0:33:30 521800  
009 Staal        Archie        0358 Delta Sport  0:33:48 10000284
010 Dijk         Ron van    68 0082 Flakkee      0:33:53         
011 Reuijl       Arjan      69 0080 Flakkee      0:33:57 692841  
012 Broeke       Rian v d   61 0066 Dynamica     0:34:15 019303  
013 Platteeuw    Albert     65 0238 Scheldesport 0:35:02 494502  
014 Moerland     Ronald     68 0231 Delta Sport  0:35:22 794729  
015 Gebuis       Hans       65 0083 Flakkee      0:36:27         
016 Konings      Aswin      66 0209 Dynamica     0:36:33 533847CC
017 Lelie        Martin     69 0264 RKHAV        0:36:40 746642  
018 Stee         Rinus van  68 0077 AV'56        0:36:48         
019 Pouwelse     Arthur     61 0276 Middelburg   0:37:18         
020 Feijter      Co de      63 0350 Delta Sport  0:37:29         
021 Karsbergen   Ruud       61 0063 Flakkee      0:38:08         
022 Bavel        Adrie van  62 0067 Delta Sport  0:41:38 625625  
023 Have         Martin vd  69 0079 Flakkee      0:43:09         
024 Verwoert     Theo       61 0069 Groesbeek    0:51:41         
   Reactie's ovv STARTNUMMER binnen een week naar: aeromad@zeelandnet.nl
 
    Pallandcross, Brouwersdam H55  8000m
    naam                   geb stn club           tyd
001 Luteijn      Sjaak      57 0302 LPK Oostburg 0:30:10 276107  ZK 1
002 Zuidweg      Jan        54 0076 Flakkee      0:33:10 300123  ZK 2
003 Lous         Henk       58 0205 Dynamica     0:34:21 569010CCZK 3
004 Kempen       Paul van   60 0073 Flakkee      0:34:32 4       
005 Dellebeke    Ron        58 0206 Dynamica     0:35:20 46857CC
006 Dijk         Arie van   51 0075 Flakkee      0:35:57 383252  
007 Visser       Pieter        0257 Wielingen    0:36:05 531891  
008 Eijken       Jan van    4  0058 Flakkee      0:38:05 657129  
009 Guequierre   John       51 0203 Dynamica     0:38:44 46791CC
010 Hassent      Jan van    58 0078 Flakkee      0:40:00 263517  
   Reactie's ovv STARTNUMMER binnen een week naar: aeromad@zeelandnet.nl
 
    Pallandcross, Brouwersdam H65  8000m
    naam                   geb stn club           tyd
001 Bos          Frans      47 0064 Dynamica     0:34:53 646280  ZK 1
002 Lasseur      Joop       42 0195 Delta Sport  0:34:56 462269CCZK 2
003 Jonge        Wim de     49 0191 AV'56        0:35:32 201138CCZK 3
004 Jong         Bauke de   46 0065 Vet Ned      0:38:16 137055  
005 Beijer       Piet       48 0202 Dynamica     0:40:22 212967M
006 Stijns       Arthur        0380 Oudelande    0:44:31         
   Reactie's ovv STARTNUMMER binnen een week naar: aeromad@zeelandnet.nl
 
    Pallandcross, Brouwersdam JA   8000m
    naam                   geb stn club           tyd
001 Peeman       Maikel     99 0182 Flakkee      0:27:52 767667  ZK 1
002 Lelie        Michiel    96 0183 RKHAV        0:29:29 747605  ZK 2
003 Kreek        Kris de    97 0179 Scheldesport 0:30:01 562666  ZK 3
004 Vos          Patrick de 96 0180 AV'56        0:30:54 517846  
005 Thuy         Dennis     97 0177 RKHAV        0:31:51 561134  
   Reactie's ovv STARTNUMMER binnen een week naar: aeromad@zeelandnet.nl
 
    Pallandcross, Brouwersdam Vse  8000m
    naam                   geb stn club           tyd
001 Berge        Laurey vd  89 0169 Flakkee      0:31:01 447589  ZK 1
002 Verschuure   Monique    80 0158 AV'56        0:32:26 819694  ZK 2
003 Karsbergen   Ellen      91 0096 Oude Tonge   0:44:10         
004 Dorst        Wendy      83 0099 Herkingen    0:48:16         
005 Karsbergen   Anne       88 0098 Oude Tonge   0:49:10         
   Reactie's ovv STARTNUMMER binnen een week naar: aeromad@zeelandnet.nl
 
    Pallandcross, Brouwersdam V35  8000m
    naam                   geb stn club           tyd
001 Hopmans      Marissa    79 0095 Spado        0:33:03 511430  ZK 1
002 Sloots       Petra      71 0093 Spark        0:33:38 293908  ZK 2
003 Joziasse     Sandra     77 0116 Dynamica     0:36:59 801203CCZK 3
004 Gilst        Paola van  73 0101 AV'56        0:37:06 744533CC
005 Harthoorn    Anneke     78 0110 Kapelle      0:38:56         
006 Eshuis       Karin      72 0094 Flakkee      0:44:45         
007 Ochtend      Marianne v 79 0100 Herkingen    0:48:17         
008 Reijngoudt   Anke       75 0171 Halsteren    0:49:12         
   Reactie's ovv STARTNUMMER binnen een week naar: aeromad@zeelandnet.nl
 
    Pallandcross, Brouwersdam V45  8000m
    naam                   geb stn club           tyd
001 Have         Janita v d 69 0092 Flakkee      0:36:52         
002 Grim         Corina     63 0120 Loopgroep G  0:37:26 821846  ZK 1
003 Verhage      Regina     63 0106 Dynamica     0:45:18 700450CCZK 2
004 Grootenboer  Jeanet        0097 Flakkee      0:48:09         
   Reactie's ovv STARTNUMMER binnen een week naar: aeromad@zeelandnet.nl
 
    Pallandcross, Brouwersdam V55  8000m
    naam                   geb stn club           tyd
001 Vries        Jannie de  59 0103 Dynamica     0:40:01 739000CCZK 1
002 Tempelaar    Ineke      57 0105 Dynamica     0:41:32 468281CCZK 2
003 Kleingeld    Lena       56 0115 avvnVliss    0:44:56 271216  ZK 3
004 Kleven       Lenie van  53 0102 avvn Vlissin 0:47:35 209921CC
   Reactie's ovv STARTNUMMER binnen een week naar: aeromad@zeelandnet.nl
 
    Pallandcross, Brouwersdam MA96/97  4075m
    naam                   geb stn club           tyd
001 Mourik       Emma van   96 0841 Delta Sport  0:18:41 10000211ZK 1
   Reactie's ovv STARTNUMMER binnen een week naar: aeromad@zeelandnet.nl
 
    Pallandcross, Brouwersdam JB98/99  4075m
    naam                   geb stn club           tyd
001 Harinck      Sergio     99 0851 Dynamica     0:15:00 602006  ZK 1
002 Balkenende   Bart       98 0856 AV'56        0:15:40 564425CCZK 2
003 Wege         Ivar v d   99 0857 Scheldesport 0:17:22 764103  ZK 3
   Reactie's ovv STARTNUMMER binnen een week naar: aeromad@zeelandnet.nl
 
    Pallandcross, Brouwersdam MB98/99  2550m
    naam                   geb stn club           tyd
001 Jones        Waeoby     99 0886 Scheldesport 0:09:52 12345   ZK 1
002 Kreek        Maaike de  99 0881 Scheldesport 0:09:58 588399  ZK 2
003 Boutens      Amber      99 0882 Scheldesport 0:10:14 588396  ZK 3
004 Lodder       Judith     99 0876 Flakkee      0:10:27 712324CC
005 Waard        Annemarie  98 0880 Delta Sport  0:11:04 748754  
006 Vanderdussen Mila       98 0887 RA           0:11:20 836592  
   Reactie's ovv STARTNUMMER binnen een week naar: aeromad@zeelandnet.nl
 
    Pallandcross, Brouwersdam Hkcr     2550m
    naam                   geb stn club           tyd
001 Meeuwse      Robbert    91 0992 AV'56        0:08:30 704349  ZK 1
002 Verstraate   Wouter     97 0964 Dynamica     0:08:38 573092  ZK 2
003 Zuidhof      Jasper     90 0989 AV'56        0:08:45 678272  ZK 3
004 Heikoop      Sebastiaan 69 0954 Delta Sport  0:08:52 588375  
005 Aafjes       Joel       89 0979 AV'56        0:09:13 803526  
006 Jongste      Lars de    97 0994 Delta Sport  0:09:42         
007 Welle        Marijn v d 96 0993 Flakkee      0:10:00         
008 Wilde        Rien de       0959 AV'56        0:10:03 90464E  
009 Tieleman     HenkJan    69 0984 Flakkee      0:10:17         
010 Baar         Pieter Jan    0963 AV'56        0:10:21 832179  
011 Luteijn      Arjen      94 0952 Wielingen    0:10:59 474700CC
012 Feijter      Co de      63 0980 Delta Sport  0:11:30 10000069
013 Maat         Harold de  69 0990 Scheldesport 0:11:40 577392  
014 Rasenberg    Ronald     65 0955 Scheldesport 0:12:13 509584  
015 Fest         Sterre     97 0951 Sommelsdijk  0:14:06 845135  
016 Schanck      George     82 0950 Wielingen    0:14:08 733744  
   Reactie's ovv STARTNUMMER binnen een week naar: aeromad@zeelandnet.nl
 
    Pallandcross, Brouwersdam Vkcr     2550m
    naam                   geb stn club           tyd
001 Aper         Aniek      89 0935 RA           0:09:46 432444  ZK 1
002 Putten       Amina van  73 0936 Flakkee      0:10:53         
003 Kroon        Saskia     88 0931 Rotterdam At 0:10:56         
004 Kluwen       Janneke    84 0933 RA           0:11:02 310602  ZK 2
005 Berkhof      Janneke    86 0932 RA           0:11:28 294961  ZK 3
006 Berkhof      Fleur      92 0934 RA           0:11:44         
007 Veringa      Caroline   70 0912 Dynamica     0:11:52 794372  
008 Klinken      Leonie van 75 0901 Nieuwerkerk  0:11:57 CC      
009 Steenblok    Marian     72 0918 AV'56        0:12:01         
010 Kraker       Paulette d 75 0920 Dynamica     0:12:31 523553  
011 Sluijs       Esther van 74 0900 AV'56        0:12:42 752749CC
012 Widt         Loes de    76 0927 Delta Sport  0:13:58 10000324
013 Harinck      Angelique  68 0905 Dynamica     0:14:10 680788CC
014 Tieleman     Wendy      72 0928 Flakkee      0:14:18 763351  
   Reactie's ovv STARTNUMMER binnen een week naar: aeromad@zeelandnet.nl
 
    Pallandcross, Brouwersdam JC00/01  1900m
    naam                   geb stn club           tyd
001 Fortuin      Jesper     00 0826 Energie      0:07:04 839489  ZK 1
002 Tuil         Niels van  01 0795 Delta Sport  0:07:18 10000418ZK 2
003 Nefs         Emiel      01 0809 Dynamica     0:07:23 770551  ZK 3
004 Kruisifikx   Thomas     01 0817 Scheldesport 0:07:37         
005 Lindhout     Siem       00 0812 Delta Sport  0:07:44 638573  
006 Putten       Axl van    00 0801 AV'56        0:07:48 806941CC
007 Konings      Sylvan     00 0807 Dynamica     0:08:00 647508  
008 Nieulande    Thomas van 01 0808 Dynamica     0:08:27 664383  
   Reactie's ovv STARTNUMMER binnen een week naar: aeromad@zeelandnet.nl
 
    Pallandcross, Brouwersdam MC00/01  1900m
    naam                   geb stn club           tyd
001 Zeeuw        Mirthe de  00 0730 Scheldesport 0:07:32 578936  ZK 1
002 Hederik      Ilvia      01 0736 Energie      0:07:40 679904  ZK 2
003 Heikoop      Iris       01 0729 Delta Sport  0:07:51 640488  ZK 3
004 Dieren       Judith van 00 0723 Flakkee      0:08:07 660270  
005 Lange        Nikita de  01 0726 Dynamica     0:08:29 716838  
006 Moerland     Miquette   01 0728 Delta Sport  0:09:24 720916  
007 Niemanstverd Amy        01 0724 RKHAV        0:09:33 635964  
   Reactie's ovv STARTNUMMER binnen een week naar: aeromad@zeelandnet.nl
 
    Pallandcross, Brouwersdam JD02/03  1900m
    naam                   geb stn club           tyd
001 Graaf        Robert de  02 0766 AV'56        0:06:27 753193  ZK 1
002 Kapteijn     Stef       02 0785 AV'56        0:06:51 674674  ZK 2
003 Roos         Matthijs   02 0767 AV'56        0:07:15 709632CCZK 3
004 Maat         Ralph de   03 0774 Scheldesport 0:07:34 740850  
005 Zeeuw        Nathan de  02 0768 Scheldesport 0:07:42 684110  
006 Anceaux      Daniel     03 0775 Scheldesport 0:07:52 767922  
007 Zerbib       Raphael    03 0786 Dynamica     0:08:14 821028  
008 Dobbelaar    Jonathan   03 0773 Scheldesport 0:08:41 842077  
009 Wieles       Chris      03 0776 Scheldesport 0:08:43         
010 Os           Martiijn v 03 0764 RKHAV        0:08:45 743240  
011 Pille        Martijn    03 0781 Flakkee      0:08:48 817917  
012 Vierbergen   Mats       03 0763 RKHAV        0:08:50 751738  
013 Karelse      Ryan       03 0758 AV'56        0:08:55 807092CC
014 Kramer       Sven       03 0757 AV'56        0:09:01 713168CC
015 Peijl        Youp v d   03 0770 Scheldesport 0:09:20 833180  
016 Schuit       Rens       93 0772 Scheldesport 0:10:14 788204  
017 Veringa      Sander     02 0782 Dynamica     0:10:28 767417  
018 Santen       Luca van   03 0769 Scheldesport 0:10:34 786455  
019 SenzZuazabal Damian     03 0771 Scheldesport 0:11:06 790258  
   Reactie's ovv STARTNUMMER binnen een week naar: aeromad@zeelandnet.nl
 
    Pallandcross, Brouwersdam MD02/03  1900m
    naam                   geb stn club           tyd
001 Anrooij      Shirin van 02 0709 AV'56        0:07:09 123456  ZK 1
002 Houtzager    Ruchama    03 0692 Delta Sport  0:07:47 681666  ZK 2
003 Putten       Shelby van 02 0671 AV'56        0:07:55 757075CCZK 3
004 Klinken      Anique van 02 0691 Delta Sport  0:07:56 665624  
005 Pellaers     Maud       02 0696 AV'56        0:08:00 708946  
006 Geldof       Jasmijn    02 0690 Dynamica     0:08:21 681779  
007 Sommeyer     Lynn       02 0689 Dynamica     0:08:24 814295  
008 Lelie        Fien       02 0702 RKHAV        0:08:27 746641  
009 Hulsken      Nikita     02 0712 Delta Sport  0:08:31 807391  
010 Acker        Emma van   03 0684 RKHAV        0:08:46 709804  
011 Exter        Eva den    03 0685 RKHAV        0:08:50 707425  
012 Baar         Sanne de   03 0704 AV'56        0:09:03 786616  
013 Hanse        Charlotte  03 0703 Delta Sport  0:09:09 830646  
014 Leenheer     Fleur      03 0710 Delta Sport  0:09:19 10000182
   Reactie's ovv STARTNUMMER binnen een week naar: aeromad@zeelandnet.nl
 
    Pallandcross, Brouwersdam JpA2 04  0950m
    naam                   geb stn club           tyd
001 Dikkenberg   Jesse v d  04 0641 AV'56        0:03:37 748547  ZK 1
002 Harthoorn    Lukas      04 0631 AV'56        0:03:53 123ia CCZK 2
003 Noordijk     Bryan      04 0646 Scheldesport 0:04:12 818859  ZK 3
004 Koens        Jovi       04 0649 AV'56        0:04:28         
005 Zeeuw        Tobias de  04 0647 Scheldesport 0:04:34 735396  
   Reactie's ovv STARTNUMMER binnen een week naar: aeromad@zeelandnet.nl
 
    Pallandcross, Brouwersdam JpA1 05  0950m
    naam                   geb stn club           tyd
001 Baar         Remco de   05 0605 AV'56        0:03:40 811412  ZK 1
002 Goethem      Maxim van  05 0640 RKHAV        0:03:56 766476  ZK 2
003 Kapteijn     Mart       05 0606 AV'56        0:03:59 742882  ZK 3
004 Schuit       Daan       05 0598 Scheldesport 0:04:18 788203  
005 Hamer        Jelte den  05 0599 Scheldesport 0:04:21         
006 Zuidhof      Chris      05 0596 Dynamica     0:04:22 816270  
007 Zuidhof      Noel       05 0595 Dynamica     0:04:25 816269  
008 Putte        Bram v d   5  0615 Flakkee      0:04:57 816219  
009 Dongen       Yob van    05 0614 Flakkee      0:05:01 845974  
   Reactie's ovv STARTNUMMER binnen een week naar: aeromad@zeelandnet.nl
 
    Pallandcross, Brouwersdam MpA2 04  0950m
    naam                   geb stn club           tyd
001 Eetveld      Katja      04 0574 RKHAV        0:04:02 746672  ZK 1
002 Coppieters   Jenna      04 0564 RKHAV        0:04:20 743244  ZK 2
003 Kraker       Pascalle d 04 0571 Dynamica     0:04:28 819937  ZK 3
004 Verschuren   Suzanne    04 0568 Scheldesport 0:04:30 798803  
005 Hulsken      Isabella   04 0582 Delta Sport  0:04:33 807392  
006 Keulen       Zoe van    04 0581 Flakkee      0:04:48 845245  
007 Kievits      Eva        04 0567 Delta Sport  0:05:50 840955  
   Reactie's ovv STARTNUMMER binnen een week naar: aeromad@zeelandnet.nl
 
    Pallandcross, Brouwersdam MpA1 05  0950m
    naam                   geb stn club           tyd
001 Graaf        Amy de     05 0544 AV'56        0:03:42 764681  ZK 1
002 Lorier       Lisanne    05 0542 Dynamica     0:04:05 749847  ZK 2
003 Keymel       Myrthe     05 0545 Scheldesport 0:04:12 596     ZK 3
004 Koole        Hilde      05 0546 Dynamica     0:04:44 784093  
005 Pellaers     Fenne      05 0543 AV'56        0:05:05 752748  
006 Sluijs       Femke van  05 0536 AV'56        0:05:23 801923CC
   Reactie's ovv STARTNUMMER binnen een week naar: aeromad@zeelandnet.nl
 
    Pallandcross, Brouwersdam JpB  06  0950m
    naam                   geb stn club           tyd
001 Maat         Fabian de  06 0515 Scheldesport 0:03:51 740849  ZK 1
002 Steenblok    Koen       06 0507 AV'56        0:03:57 11205CC ZK 2
003 Kooijman     Milan      06 0523 Flakkee      0:04:01 815211  ZK 3
004 Brandwijk    AmramBoaz  06 0525 Flakkee      0:04:08 793407  
005 Koole        Stijn      06 0510 Dynamica     0:04:09 784092  
006 Verschuren   Niels      06 0511 Scheldesport 0:04:14 767927  
007 Pijnen       Benjamin   06 0512 Scheldesport 0:04:31 843320  
008 Dees         Rody       06 0453 AV'56        0:05:01 821489  
009 Gerrits      Nout       07 0526 Flakkee      0:05:07 836313  
010 Bakelaar     Lars       06 0524 Flakkee      0:05:10 836317  
   Reactie's ovv STARTNUMMER binnen een week naar: aeromad@zeelandnet.nl
 
    Pallandcross, Brouwersdam JpC  07  0950m
    naam                   geb stn club           tyd
001 Ton          Luca       07 0476 Dynamica     0:04:05 817739  ZK 1
002 Tieleman     Thom       07 0485 Flakkee      0:04:11         
003 Joppe        Zedie      7  0483 Flakkee      0:04:21 847287  ZK 2
004 Engels       Ivar       07 0469 Dynamica     0:04:26 817741  ZK 3
005 Zandstra     Lucas      07 0472 Scheldesport 0:04:45 804733  
006 Willemse     Terry      07 0463 Flakkee      0:04:49         
007 Wieles       Viktor     07 0475 Scheldesport 0:04:55         
008 Keijmel      Ruben      07 0473 Scheldesport 0:04:58 818855  
009 Veringa      Eric       07 0477 Dynamica     0:05:20 803429  
010 Koppejan     Jesse      07 0470 Dynamica     0:05:36 827934  
011 Rosenbrand   Kjell      08 0471 Flakkee      0:05:45 847287  
   Reactie's ovv STARTNUMMER binnen een week naar: aeromad@zeelandnet.nl
 
    Pallandcross, Brouwersdam MpB  06  0950m
    naam                   geb stn club           tyd
001 Karelse      Yara       06 0442 AV'56        0:04:06 800807CCZK 1
002 Kraker       Yasmine    06 0444 Dynamica     0:04:15 817736  ZK 2
003 Boot         Anna       06 0449 Delta Sport  0:04:18 820720  ZK 3
004 Dikkenberg   Inke v d   06 0448 AV'56        0:04:25 786624  
005 Simonse      Marit      06 0440 AV'56        0:04:27 811420M
006 Luijk        Zoe van    06 0441 AV'56        0:04:34 790209CC
007 Otzel        Isable     06 0454 Delta Sport  0:04:47 818116  
008 Maas         Britt v d  06 0455 Delta Sport  0:04:51 830973  
009 Loenen       Chris      06 0522 Flakkee      0:04:52 817916  
010 Lansbergen   Maud          0452 AV'56        0:04:57 821495  
011 Vural        Jasmine    06 0456 Delta Sport  0:05:08 845531  
012 Sluis        Elise v d  06 0457 Flakkee      0:05:39 845132  
013 Paasse       Laura      06 0458 Flakkee      0:05:48 836316  
014 Kramer       Mila       06 0439 AV'56        0:06:00 786626CC
   Reactie's ovv STARTNUMMER binnen een week naar: aeromad@zeelandnet.nl
 
    Pallandcross, Brouwersdam MpC  07  0950m
    naam                   geb stn club           tyd
001 Harthoorn    Marise     07 0401 Kapelle      0:04:21 CC      
002 Hamer        Benthe den 07 0411 Scheldesport 0:04:31 12345   ZK 1
003 Zerbib       Chloe      07 0406 Dynamica     0:04:39 821036  ZK 2
004 Geus         Brigitte d 07 0418 AV'56        0:04:42         
005 Luijk        Tess van   07 0404 AV'56        0:05:01 818396CCZK 3
006 Verlinde     Neline     07 0409 Scheldesport 0:05:12 835649  
007 Pijnen       Valerie    08 0412 Scheldesport 0:05:18 843321  
008 Wu           Emmalie    07 0423 Flakkee      0:05:20 848965  
009 Schilperoord Amie       07 0422 Delta Sport  0:05:23 12345   
010 Peeters      Demi       07 0410 Scheldesport 0:05:25 831473  
011 Bie          Bente v d  08 0425 Delta Sport  0:05:29         
012 Bie          Jarda v d  07 0424 Delta Sport  0:05:42 10000378
   Reactie's ovv STARTNUMMER binnen een week naar: aeromad@zeelandnet.nl
 
     finishers: ,252

terug naar boven